METAR AND TAF INFORMATION
METAR FOR KMHT
ADDS - METARS form results

(2252 UTC 21 August 2019)
Data provider http://aviationweather.gov/metar/data/
 
METAR text: KMHT 212241Z 17008KT 10SM SCT010 BKN120 OVC250 25/23 A2982 RMK AO2 LTG DSNT NE T02500228
Conditions at: KMHT (MANCHESTER , NH, US) observed 2241 UTC 21 August 2019
Temperature: 25.0°C (77°F)
Dewpoint: 22.8°C (73°F) [RH = 88%]
Pressure (altimeter): 29.82 inches Hg (1009.9 mb)
Winds: from the S (170 degrees) at 9 MPH (8 knots; 4.1 m/s)
Visibility: 10 or more miles (16+ km)
Ceiling: 12000 feet AGL
Clouds: scattered clouds at 1000 feet AGL
broken clouds at 12000 feet AGL
overcast cloud deck at 25000 feet AGL
Weather: no significant weather observed at this time

METAR text: KMHT 212204Z 18007KT 10SM BKN010 BKN120 BKN250 24/23 A2982 RMK AO2 LTG DSNT N AND NE T02440228
Conditions at: KMHT (MANCHESTER , NH, US) observed 2204 UTC 21 August 2019
Temperature: 24.4°C (76°F)
Dewpoint: 22.8°C (73°F) [RH = 91%]
Pressure (altimeter): 29.82 inches Hg (1009.9 mb)
Winds: from the S (180 degrees) at 8 MPH (7 knots; 3.6 m/s)
Visibility: 10 or more miles (16+ km)
Ceiling: 1000 feet AGL
Clouds: broken clouds at 1000 feet AGL
broken clouds at 12000 feet AGL
broken clouds at 25000 feet AGL
Weather: no significant weather observed at this time

METAR text: KMHT 212153Z 19008KT 10SM VCTS BKN010 BKN024 OVC120 25/23 A2983 RMK AO2 LTG DSNT N AND NE SLP111 T02500228
Conditions at: KMHT (MANCHESTER , NH, US) observed 2153 UTC 21 August 2019
Temperature: 25.0°C (77°F)
Dewpoint: 22.8°C (73°F) [RH = 88%]
Pressure (altimeter): 29.83 inches Hg (1010.2 mb)
[Sea-level pressure: 1011.1 mb]
Winds: from the S (190 degrees) at 9 MPH (8 knots; 4.1 m/s)
Visibility: 10 or more miles (16+ km)
Ceiling: 1000 feet AGL
Clouds: broken clouds at 1000 feet AGL
broken clouds at 2400 feet AGL
overcast cloud deck at 12000 feet AGL
Weather: VCTS  (thunderstorm in vicinity)

Forecast for: KMHT (MANCHESTER , NH, US)
Text: KMHT 211732Z 2118/2218 18004KT P6SM VCSH SCT025 BKN060
Forecast period: 1800 UTC 21 August 2019 to 0100 UTC 22 August 2019
Forecast type: FROM: standard forecast or significant change
Winds: from the S (180 degrees) at 5 MPH (4 knots; 2.1 m/s)
Visibility: 6 or more miles 10+ km)
Ceiling: 6000 feet AGL
Clouds: scattered clouds at 2500 feet AGL
broken clouds at 6000 feet AGL
Weather: VCSH  (showers in vicinity)
Text: TEMPO 2123/2201 3SM TSRA BKN025CB
Forecast period: 2300 UTC 21 August 2019 to 0100 UTC 22 August 2019
Forecast type: TEMPORARY: The following changes expected for less than half the time period
Visibility: 3 miles (5 km)
Ceiling: 2500 feet AGL
Clouds: broken clouds at 2500 feet AGL
Weather: TSRA  (rain associated with thunderstorm(s))
Text: FM220100 19004KT 6SM HZ SCT100
Forecast period: 0100 to 1400 UTC 22 August 2019
Forecast type: FROM: standard forecast or significant change
Winds: from the S (190 degrees) at 5 MPH (4 knots; 2.1 m/s)
Visibility: 6 miles (10 km)
Ceiling: at least 12,000 feet AGL
Clouds: scattered clouds at 10000 feet AGL
Weather: HZ  (haze)
Text: FM221400 27005KT P6SM SCT050
Forecast period: 1400 to 1800 UTC 22 August 2019
Forecast type: FROM: standard forecast or significant change
Winds: from the W (270 degrees) at 6 MPH (5 knots; 2.6 m/s)
Visibility: 6 or more miles 10+ km)
Ceiling: at least 12,000 feet AGL
Clouds: scattered clouds at 5000 feet AGL
Weather: no significant weather forecast for this period

 AIRPORT MAP

 RUNWAY INFORMATION
Runway 06 Runway length 6850 ft Runway width 150 ft
Runway elevation 220 ft Runway displaced threshold 0 ft Runway heading 42
Runway 24 Runway length 6850 ft Runway width 150 ft
Runway elevation 238 ft Runway displaced threshold 0 ft Runway heading 222
Runway 17 Runway length 9250 ft Runway width 150 ft
Runway elevation 218 ft Runway displaced threshold 336 ft Runway heading 157
Runway 35 Runway length 9250 ft Runway width 150 ft
Runway elevation 265 ft Runway displaced threshold 850 ft Runway heading 337

 AIRPORT FREQUENCIES
Type A/D Name Boston App Frequency 124.9 MHZ
Type A/D Name Boston App Frequency 134.75 MHZ
Type ASOS Name ASOS Frequency 119.55 MHZ
Type ATIS Name ATIS Frequency 119.55 MHZ
Type CLD Name CLNC DEL Frequency 135.9 MHZ
Type GND Name GND Frequency 121.9 MHZ
Type RDO Name BANGOR RDO Frequency 114.4 MHZ
Type TWR Name TWR Frequency 121.3 MHZ
Type UNIC Name UNICOM Frequency 122.95 MHZ

 AIRPORT NEAR NAVIGATION AIDS



Powered by Virtual Airlines Manager [[v2.6.2]]